createdAt,value
2023-03-29T00:01:06.103Z,99495.97
2023-03-29T00:04:20.018Z,99503.98
2023-03-29T00:07:33.770Z,99506.66
2023-03-29T00:10:46.344Z,99508.41
2023-03-29T00:13:58.493Z,99510.31
2023-03-29T00:17:12.948Z,99508.69
2023-03-29T00:20:25.763Z,99506.11
2023-03-29T00:23:38.033Z,99511.38
2023-03-29T00:26:50.198Z,99504.58
2023-03-29T00:30:04.359Z,99515.00
2023-03-29T00:33:16.695Z,99516.88
2023-03-29T00:36:28.825Z,99517.83
2023-03-29T00:39:44.149Z,99521.44
2023-03-29T00:42:57.328Z,99519.81
2023-03-29T00:46:11.330Z,99524.17
2023-03-29T00:49:23.608Z,99532.08
2023-03-29T00:52:39.029Z,99520.86
2023-03-29T00:55:56.886Z,99516.56
2023-03-29T00:59:11.879Z,99512.30
2023-03-29T01:02:27.584Z,99508.03
2023-03-29T01:05:44.645Z,99497.73
2023-03-29T01:09:01.387Z,99508.16
2023-03-29T01:12:20.977Z,99503.03
2023-03-29T01:15:34.993Z,99498.74
2023-03-29T01:18:47.236Z,99491.88
2023-03-29T01:22:05.047Z,99497.14
2023-03-29T01:25:25.565Z,99487.58
2023-03-29T01:28:42.711Z,99492.82
2023-03-29T01:31:59.239Z,99491.22
2023-03-29T01:35:17.999Z,99494.75
2023-03-29T01:38:34.868Z,99482.60
2023-03-29T01:41:54.251Z,99486.13
2023-03-29T01:45:14.069Z,99486.25
2023-03-29T01:48:31.868Z,99479.32
2023-03-29T01:51:48.374Z,99478.45
2023-03-29T01:55:07.205Z,99481.25
2023-03-29T01:58:22.725Z,99489.95
2023-03-29T02:01:39.169Z,99491.81
2023-03-29T02:04:56.351Z,99495.36
2023-03-29T02:08:11.865Z,99498.11
2023-03-29T02:11:26.188Z,99496.36
2023-03-29T02:14:39.818Z,99496.42
2023-03-29T02:17:53.561Z,99488.81
2023-03-29T02:21:05.830Z,99486.47
2023-03-29T02:24:22.513Z,99486.52
2023-03-29T02:27:37.772Z,99488.34
2023-03-29T02:30:57.392Z,99473.17
2023-03-29T02:34:16.213Z,99493.67
2023-03-29T02:37:30.573Z,99486.92
2023-03-29T02:40:45.570Z,99493.87
2023-03-29T02:43:58.776Z,99494.95
2023-03-29T02:47:16.920Z,99494.95
2023-03-29T02:50:30.601Z,99498.55
2023-03-29T02:53:46.682Z,99493.34
2023-03-29T02:57:04.054Z,99494.31
2023-03-29T03:00:22.537Z,99493.50
2023-03-29T03:03:36.109Z,99495.25
2023-03-29T03:06:49.188Z,99497.91
2023-03-29T03:10:01.309Z,99497.98
2023-03-29T03:13:14.059Z,99498.09
2023-03-29T03:16:26.634Z,99498.09
2023-03-29T03:19:39.897Z,99503.25
2023-03-29T03:22:54.267Z,99500.64
2023-03-29T03:26:06.437Z,99506.77
2023-03-29T03:29:19.873Z,99505.95
2023-03-29T03:32:50.070Z,99508.58
2023-03-29T03:36:22.992Z,99504.34
2023-03-29T03:39:37.366Z,99510.36
2023-03-29T03:42:50.064Z,99511.23
2023-03-29T03:46:02.910Z,99505.23
2023-03-29T03:49:16.871Z,99504.42
2023-03-29T03:52:30.119Z,99504.34
2023-03-29T03:55:43.188Z,99506.97
2023-03-29T03:58:57.454Z,99509.69
2023-03-29T04:02:10.714Z,99518.42
2023-03-29T04:05:24.067Z,99516.73
2023-03-29T04:08:37.041Z,99515.14
2023-03-29T04:12:00.107Z,99509.95
2023-03-29T04:15:15.009Z,99503.19
2023-03-29T04:18:30.227Z,99510.98
2023-03-29T04:21:46.345Z,99506.77
2023-03-29T04:24:58.517Z,99509.53
2023-03-29T04:28:17.506Z,99517.47
2023-03-29T04:31:32.376Z,99512.26
2023-03-29T04:35:02.607Z,99507.94
2023-03-29T04:38:15.136Z,99503.66
2023-03-29T04:41:29.292Z,99512.33
2023-03-29T04:44:49.200Z,99502.72
2023-03-29T04:48:06.003Z,99506.13
2023-03-29T04:51:20.369Z,99510.36
2023-03-29T04:54:34.698Z,99511.09
2023-03-29T04:57:48.863Z,99511.05
2023-03-29T05:01:06.085Z,99506.52
2023-03-29T05:04:23.195Z,99501.02
2023-03-29T05:07:37.612Z,99502.69
2023-03-29T05:10:52.348Z,99497.18
2023-03-29T05:14:07.197Z,99502.13
2023-03-29T05:17:20.637Z,99492.40
2023-03-29T05:20:34.088Z,99488.66
2023-03-29T05:23:46.693Z,99485.86
2023-03-29T05:27:02.834Z,99494.10
2023-03-29T05:30:19.765Z,99496.50
2023-03-29T05:33:37.244Z,99495.36
2023-03-29T05:36:50.354Z,99493.35
2023-03-29T05:40:08.068Z,99502.56
2023-03-29T05:43:34.290Z,99500.70
2023-03-29T05:54:08.801Z,99499.36
2023-03-29T05:57:21.818Z,99483.38
2023-03-29T06:00:36.924Z,99486.77
2023-03-29T06:03:51.424Z,99477.75
2023-03-29T06:07:05.909Z,99476.61
2023-03-29T06:10:20.591Z,99485.41
2023-03-29T06:13:37.286Z,99486.09
2023-03-29T06:16:50.590Z,99479.17
2023-03-29T06:20:06.500Z,99470.10
2023-03-29T06:23:19.968Z,99476.66
2023-03-29T06:26:33.160Z,99472.44
2023-03-29T09:30:53.673Z,99368.85
2023-03-29T09:34:09.453Z,99359.99
2023-03-29T09:37:30.236Z,99363.89
2023-03-29T09:40:49.181Z,99354.98
2023-03-29T09:44:07.346Z,99361.92
2023-03-29T09:47:28.387Z,99365.58
2023-03-29T09:50:47.000Z,99362.09
2023-03-29T09:54:01.252Z,99359.00
2023-03-29T09:57:24.269Z,99353.92
2023-03-29T10:00:36.957Z,99354.70
2023-03-29T10:03:54.635Z,99336.25
2023-03-29T10:07:08.874Z,99340.55
2023-03-29T10:10:32.218Z,99345.52
2023-03-29T10:13:53.837Z,99341.14
2023-03-29T10:17:08.864Z,99339.27
2023-03-29T10:20:25.049Z,99336.92
2023-03-29T10:23:41.324Z,99334.23
2023-03-29T10:26:57.128Z,99337.14
2023-03-29T10:30:18.708Z,99334.61
2023-03-29T10:33:35.459Z,99341.02
2023-03-29T10:36:52.447Z,99327.16
2023-03-29T10:43:26.797Z,99325.86
2023-03-29T10:46:46.713Z,99321.45
2023-03-29T10:50:04.608Z,99321.45
2023-03-29T10:53:25.587Z,99312.47
2023-03-29T10:56:52.371Z,99321.41
2023-03-29T11:00:11.042Z,99313.34
2023-03-29T11:03:51.679Z,99302.69
2023-03-29T11:07:23.447Z,99317.25
2023-03-29T11:10:46.229Z,99305.66
2023-03-29T11:14:04.072Z,99298.18
2023-03-29T11:17:28.296Z,99294.52
2023-03-29T11:20:48.056Z,99289.63
2023-03-29T11:24:10.376Z,99292.85
2023-03-29T11:27:33.299Z,99290.45
2023-03-29T11:30:52.224Z,99288.50
2023-03-29T11:34:16.535Z,99272.85
2023-03-29T11:37:35.985Z,99268.86
2023-03-29T11:40:58.000Z,99263.80
2023-03-29T11:44:16.659Z,99275.18
2023-03-29T11:47:33.498Z,99259.36
2023-03-29T11:50:52.649Z,99254.55
2023-03-29T11:54:15.013Z,99252.68
2023-03-29T11:57:33.452Z,99257.65
2023-03-29T12:00:49.293Z,99256.94
2023-03-29T12:04:05.795Z,99249.70
2023-03-29T13:27:43.226Z,99161.55
2023-03-29T13:34:42.125Z,99156.16
2023-03-29T13:41:39.995Z,99150.73
2023-03-29T13:44:54.717Z,99149.38
2023-03-29T13:48:29.583Z,99151.00
2023-03-29T13:51:47.140Z,99146.28
2023-03-29T13:55:04.186Z,99137.95
2023-03-29T14:04:53.781Z,99124.13
2023-03-29T14:08:13.192Z,99125.18
2023-03-29T14:11:31.525Z,99122.39
2023-03-29T14:14:58.364Z,99121.24
2023-03-29T14:18:05.623Z,99120.23
2023-03-29T14:21:17.673Z,99120.69
2023-03-29T14:24:36.469Z,99120.00
2023-03-29T14:27:49.564Z,99117.19
2023-03-29T14:31:02.782Z,99117.33
2023-03-29T14:34:26.971Z,99116.64
2023-03-29T14:37:39.369Z,99114.39
2023-03-29T14:40:53.542Z,99121.66
2023-03-29T14:44:07.168Z,99116.89
2023-03-29T14:47:28.321Z,99111.81
2023-03-29T14:50:41.933Z,99120.90
2023-03-29T14:53:55.293Z,99110.98
2023-03-29T14:57:10.701Z,99118.00
2023-03-29T15:00:35.253Z,99107.92
2023-03-29T15:03:59.640Z,99114.47
2023-03-29T15:07:12.632Z,99116.78
2023-03-29T15:10:26.093Z,99106.71
2023-03-29T15:13:39.046Z,99094.72
2023-03-29T15:16:54.410Z,99110.80
2023-03-29T15:20:15.986Z,99106.89
2023-03-29T15:23:40.732Z,99102.83
2023-03-29T15:27:05.760Z,99100.55
2023-03-29T15:30:22.238Z,99099.47
2023-03-29T15:33:41.863Z,99097.72
2023-03-29T15:36:54.966Z,99097.77
2023-03-29T15:40:09.933Z,99086.77
2023-03-29T15:43:23.855Z,99086.97
2023-03-29T15:46:36.482Z,99089.05
2023-03-29T15:49:49.060Z,99083.22
2023-03-29T15:53:14.170Z,99092.52
2023-03-29T15:56:23.136Z,99085.42
2023-03-29T15:59:36.675Z,99081.03
2023-03-29T16:02:49.629Z,99083.48
2023-03-29T16:06:04.848Z,99081.41
2023-03-29T16:09:17.807Z,99086.91
2023-03-29T16:12:33.378Z,99084.50
2023-03-29T16:15:49.501Z,99087.50
2023-03-29T16:19:01.804Z,99085.22
2023-03-29T16:22:14.606Z,99074.98
2023-03-29T16:25:27.696Z,99067.38
2023-03-29T16:28:40.142Z,99071.25
2023-03-29T16:31:53.601Z,99071.19
2023-03-29T16:35:06.010Z,99078.55
2023-03-29T16:38:18.517Z,99064.63
2023-03-29T16:41:32.044Z,99073.79
2023-03-29T16:44:44.754Z,99070.95
2023-03-29T16:47:57.224Z,99065.09
2023-03-29T16:51:11.425Z,99071.47
2023-03-29T16:54:25.905Z,99065.73
2023-03-29T16:57:39.065Z,99053.22
2023-03-29T17:00:52.264Z,99058.06
2023-03-29T17:04:04.543Z,99061.20
2023-03-29T17:07:16.857Z,99059.17
2023-03-29T17:10:29.847Z,99062.92
2023-03-29T17:13:42.315Z,99071.06
2023-03-29T17:16:54.666Z,99071.08
2023-03-29T17:20:08.749Z,99070.23
2023-03-29T17:23:21.346Z,99066.36
2023-03-29T17:26:33.943Z,99073.57
2023-03-29T17:29:46.242Z,99073.70
2023-03-29T17:32:58.895Z,99078.47
2023-03-29T17:36:13.890Z,99085.67
2023-03-29T17:39:27.350Z,99081.58
2023-03-29T17:42:39.958Z,99084.81
2023-03-29T17:45:54.205Z,99084.94
2023-03-29T17:49:07.060Z,99095.36
2023-03-29T17:52:19.708Z,99091.00
2023-03-29T17:55:32.050Z,99083.73
2023-03-29T17:58:44.556Z,99087.89
2023-03-29T18:01:57.726Z,99089.89
2023-03-29T18:05:11.597Z,99090.21
2023-03-29T18:08:24.358Z,99099.55
2023-03-29T18:11:37.384Z,99095.66
2023-03-29T18:14:49.897Z,99092.84
2023-03-29T18:18:02.379Z,99106.06
2023-03-29T18:21:15.656Z,99108.94
2023-03-29T18:24:27.976Z,99106.62
2023-03-29T18:27:40.297Z,99101.45
2023-03-29T18:30:56.175Z,99104.77
2023-03-29T18:34:08.603Z,99102.88
2023-03-29T18:37:21.185Z,99108.15
2023-03-29T18:40:34.903Z,99112.69
2023-03-29T18:43:47.854Z,99117.88
2023-03-29T18:47:00.368Z,99113.53
2023-03-29T18:50:15.299Z,99118.72
2023-03-29T18:53:27.893Z,99110.56
2023-03-29T18:56:40.165Z,99107.30
2023-03-29T18:59:52.808Z,99104.13
2023-03-29T19:03:05.240Z,99104.54
2023-03-29T19:06:18.028Z,99097.38
2023-03-29T19:09:31.960Z,99102.64
2023-03-29T19:12:44.771Z,99106.66
2023-03-29T19:15:57.197Z,99106.63
2023-03-29T19:19:10.938Z,99102.40
2023-03-29T19:22:23.173Z,99101.14
2023-03-29T19:25:36.909Z,99105.55
2023-03-29T19:28:49.558Z,99096.28
2023-03-29T19:32:01.909Z,99102.28
2023-03-29T19:35:17.092Z,99098.91
2023-03-29T19:38:29.712Z,99105.52
2023-03-29T19:41:42.145Z,99102.70
2023-03-29T19:44:54.775Z,99087.19
2023-03-29T19:48:07.377Z,99088.16
2023-03-29T19:51:20.044Z,99085.08
2023-03-29T19:54:32.375Z,99079.81
2023-03-29T19:57:44.678Z,99085.41
2023-03-29T20:00:58.260Z,99094.34
2023-03-29T20:04:12.060Z,99093.50
2023-03-29T20:07:24.768Z,99093.31
2023-03-29T20:10:37.446Z,99097.09
2023-03-29T20:13:51.663Z,99098.88
2023-03-29T20:17:04.684Z,99110.47
2023-03-29T20:20:19.138Z,99104.25
2023-03-29T20:23:31.799Z,99107.09
2023-03-29T20:26:44.373Z,99104.64
2023-03-29T20:29:56.725Z,99108.24
2023-03-29T20:33:09.287Z,99107.39
2023-03-29T20:36:23.329Z,99091.78
2023-03-29T20:39:37.391Z,99094.92
2023-03-29T20:42:49.925Z,99088.38
2023-03-29T20:46:02.365Z,99088.38
2023-03-29T20:49:16.492Z,99083.91
2023-03-29T20:52:30.006Z,99080.19
2023-03-29T20:55:43.028Z,99076.81
2023-03-29T20:58:55.868Z,99085.20
2023-03-29T21:02:08.917Z,99071.98
2023-03-29T21:05:22.017Z,99057.08
2023-03-29T21:08:34.727Z,99072.08
2023-03-29T21:11:47.233Z,99074.99
2023-03-29T21:15:00.622Z,99068.06
2023-03-29T21:18:13.397Z,99061.95
2023-03-29T21:21:26.325Z,99050.69
2023-03-29T21:24:39.643Z,99055.09
2023-03-29T21:27:52.075Z,99053.32
2023-03-29T21:31:07.564Z,99043.73
2023-03-29T21:34:20.086Z,99053.32
2023-03-29T21:37:33.133Z,99051.93
2023-03-29T21:40:45.505Z,99050.13
2023-03-29T21:43:57.833Z,99054.34
2023-03-29T21:47:10.209Z,99052.75
2023-03-29T21:50:22.619Z,99057.36
2023-03-29T21:53:35.002Z,99051.26
2023-03-29T21:56:48.415Z,99053.06
2023-03-29T22:00:00.982Z,99056.62
2023-03-29T22:03:13.365Z,99057.86
2023-03-29T22:06:25.712Z,99044.92
2023-03-29T22:09:40.938Z,99038.81
2023-03-29T22:12:53.501Z,99047.93
2023-03-29T22:16:07.861Z,99046.33
2023-03-29T22:19:20.242Z,99050.94
2023-03-29T22:22:32.433Z,99049.23
2023-03-29T22:25:45.039Z,99040.71
2023-03-29T22:28:58.225Z,99056.65
2023-03-29T22:32:11.506Z,99048.77
2023-03-29T22:35:24.362Z,99046.45
2023-03-29T22:38:37.354Z,99036.00
2023-03-29T22:41:49.624Z,99043.89
2023-03-29T22:45:01.746Z,99040.34
2023-03-29T22:48:14.278Z,99039.38
2023-03-29T22:51:27.451Z,99038.56
2023-03-29T22:54:39.837Z,99040.13
2023-03-29T22:57:51.958Z,99035.94
2023-03-29T23:01:05.206Z,99027.48
2023-03-29T23:04:18.214Z,99025.80
2023-03-29T23:07:30.521Z,99028.53
2023-03-29T23:10:42.638Z,99022.61
2023-03-29T23:13:55.454Z,99022.23
2023-03-29T23:17:09.512Z,99020.17
2023-03-29T23:20:22.676Z,99013.69
2023-03-29T23:23:35.806Z,99009.17
2023-03-29T23:26:49.244Z,99005.41
2023-03-29T23:30:01.940Z,99000.70
2023-03-29T23:33:15.141Z,98993.28
2023-03-29T23:36:29.422Z,98995.80
2023-03-29T23:39:42.109Z,98993.63
2023-03-29T23:42:56.583Z,98991.54
2023-03-29T23:46:11.391Z,98983.36
2023-03-29T23:49:24.479Z,98983.18
2023-03-29T23:52:38.217Z,98982.05
2023-03-29T23:55:51.550Z,98977.53
2023-03-29T23:59:04.787Z,98972.05
